Time;durP1;ratioP1;P1;durP2;ratioP2;P2;SDS_P1;SDS_P2;PMS_P1;PMS_P2;Temp;Humidity;BMP_temperature;BMP_pressure;BME280_temperature;BME280_humidity;BME280_pressure;Samples;Min_cycle;Max_cycle;Signal;HPM_P1;HPM_P2
2022/08/27 00:00:41;;;;;;;;;;;22.50;99.90;;;;;;5184830;28;19904;-62
2022/08/27 00:03:14;;;;;;;;;;;22.40;99.90;;;;;;5198323;28;19909;-62
2022/08/27 00:05:45;;;;;;;;;;;22.30;99.90;;;;;;5186283;28;20236;-61
2022/08/27 00:08:16;;;;;;;;;;;22.20;99.90;;;;;;5197095;28;20124;-63
2022/08/27 00:10:47;;;;;;;;;;;22.20;99.90;;;;;;5195477;28;19968;-63
2022/08/27 00:13:18;;;;;;;;;;;22.10;99.90;;;;;;5193716;28;20220;-63
2022/08/27 00:15:52;;;;;;;;;;;22.10;99.90;;;;;;5195304;28;19917;-61
2022/08/27 00:18:23;;;;;;;;;;;22.20;99.90;;;;;;5195099;28;20144;-62
2022/08/27 00:20:54;;;;;;;;;;;22.20;99.90;;;;;;5196210;28;19913;-62
2022/08/27 00:23:25;;;;;;;;;;;22.20;99.90;;;;;;5197538;28;20043;-62
2022/08/27 00:25:57;;;;;;;;;;;22.20;99.90;;;;;;5195119;28;19950;-62
2022/08/27 00:28:30;;;;;;;;;;;22.10;99.90;;;;;;5195902;28;20174;-61
2022/08/27 00:31:01;;;;;;;;;;;22.10;99.90;;;;;;5197987;28;20094;-62
2022/08/27 00:33:36;;;;;;;;;;;22.10;99.90;;;;;;5194825;28;19905;-62
2022/08/27 00:36:11;;;;;;;;;;;22.00;99.90;;;;;;5191567;28;19900;-62
2022/08/27 00:38:42;;;;;;;;;;;21.90;99.90;;;;;;5194739;28;19901;-62
2022/08/27 00:41:13;;;;;;;;;;;21.90;99.90;;;;;;5220303;28;19908;-63
2022/08/27 00:43:47;;;;;;;;;;;21.80;99.90;;;;;;5194661;28;19931;-62
2022/08/27 00:46:29;;;;;;;;;;;21.80;99.90;;;;;;5194738;28;19907;-62
2022/08/27 00:49:11;;;;;;;;;;;21.80;99.90;;;;;;5194965;28;20074;-62
2022/08/27 00:51:43;;;;;;;;;;;21.90;99.90;;;;;;5176745;28;19905;-62
2022/08/27 00:54:16;;;;;;;;;;;21.80;99.90;;;;;;5226528;28;20094;-62
2022/08/27 00:56:48;;;;;;;;;;;21.80;99.90;;;;;;5219983;28;19901;-62
2022/08/27 00:59:23;;;;;;;;;;;21.70;99.90;;;;;;5220526;28;20108;-62
2022/08/27 01:05:04;;;;;;;;;;;21.50;99.90;;;;;;5192357;28;19917;-61
2022/08/27 01:07:39;;;;;;;;;;;21.40;99.90;;;;;;5181991;28;19901;-62
2022/08/27 01:10:14;;;;;;;;;;;21.30;99.90;;;;;;5197523;28;19905;-64
2022/08/27 01:12:45;;;;;;;;;;;21.20;99.90;;;;;;5212675;28;19905;-63
2022/08/27 01:15:18;;;;;;;;;;;21.20;99.90;;;;;;5197422;28;19909;-63
2022/08/27 01:17:52;;;;;;;;;;;21.20;99.90;;;;;;5196695;28;19943;-62
2022/08/27 01:20:25;;;;;;;;;;;21.20;99.90;;;;;;5198845;28;20211;-63
2022/08/27 01:23:15;;;;;;;;;;;21.20;99.90;;;;;;5198405;28;19915;-62
2022/08/27 01:25:54;;;;;;;;;;;21.10;99.90;;;;;;5214275;28;19901;-62
2022/08/27 01:28:32;;;;;;;;;;;21.40;99.90;;;;;;5180420;28;19917;-61
2022/08/27 01:31:10;;;;;;;;;;;21.30;99.90;;;;;;5196985;28;19924;-62
2022/08/27 01:33:52;;;;;;;;;;;21.20;99.90;;;;;;5162267;28;19920;-62
2022/08/27 01:36:26;;;;;;;;;;;21.00;99.90;;;;;;5200435;28;19901;-62
2022/08/27 01:39:05;;;;;;;;;;;20.90;99.90;;;;;;5200491;28;19901;-62
2022/08/27 01:41:36;;;;;;;;;;;20.80;99.90;;;;;;5197933;28;19911;-61
2022/08/27 01:44:07;;;;;;;;;;;20.80;99.90;;;;;;5179988;28;20307;-62
2022/08/27 01:46:39;;;;;;;;;;;20.80;99.90;;;;;;5178559;28;20167;-62
2022/08/27 01:49:12;;;;;;;;;;;20.70;99.90;;;;;;5178287;28;19909;-62
2022/08/27 01:51:46;;;;;;;;;;;20.60;99.90;;;;;;5164837;28;19901;-62
2022/08/27 01:54:19;;;;;;;;;;;20.50;99.90;;;;;;5198579;28;19905;-63
2022/08/27 01:56:53;;;;;;;;;;;20.50;99.90;;;;;;5180617;28;19905;-63
2022/08/27 01:59:24;;;;;;;;;;;20.40;99.90;;;;;;5180553;28;20071;-62
2022/08/27 02:01:56;;;;;;;;;;;20.40;99.90;;;;;;5200587;28;19905;-63
2022/08/27 02:04:27;;;;;;;;;;;20.50;99.90;;;;;;5193514;28;19915;-63
2022/08/27 02:06:59;;;;;;;;;;;20.50;99.90;;;;;;5231910;28;19900;-62
2022/08/27 02:09:32;;;;;;;;;;;20.40;99.90;;;;;;5214650;28;19901;-62
2022/08/27 02:12:03;;;;;;;;;;;20.50;99.90;;;;;;5197578;28;20096;-62
2022/08/27 02:14:34;;;;;;;;;;;20.40;99.90;;;;;;5185518;28;19917;-60
2022/08/27 02:17:05;;;;;;;;;;;20.30;99.90;;;;;;5179216;28;19901;-61
2022/08/27 02:19:41;;;;;;;;;;;20.30;99.90;;;;;;5179050;28;19912;-63
2022/08/27 02:22:18;;;;;;;;;;;20.30;99.90;;;;;;5197004;28;19905;-62
2022/08/27 02:24:52;;;;;;;;;;;20.30;99.90;;;;;;5196734;28;20174;-63
2022/08/27 02:27:26;;;;;;;;;;;20.30;99.90;;;;;;5197320;28;19901;-62
2022/08/27 02:30:02;;;;;;;;;;;20.30;99.90;;;;;;5200929;28;19901;-62
2022/08/27 02:32:36;;;;;;;;;;;20.30;99.90;;;;;;5198420;28;19911;-62
2022/08/27 02:35:08;;;;;;;;;;;20.30;99.90;;;;;;5187566;28;19931;-62
2022/08/27 02:37:39;;;;;;;;;;;20.30;99.90;;;;;;5232699;28;19905;-62
2022/08/27 02:40:10;;;;;;;;;;;20.20;99.90;;;;;;5225996;28;20757;-62
2022/08/27 02:42:44;;;;;;;;;;;20.20;99.90;;;;;;5197155;28;20206;-62
2022/08/27 02:45:16;;;;;;;;;;;20.20;99.90;;;;;;5195330;28;19901;-61
2022/08/27 02:47:50;;;;;;;;;;;20.10;99.90;;;;;;5178817;28;20010;-62
2022/08/27 02:50:26;;;;;;;;;;;20.10;99.90;;;;;;5196064;28;19912;-62
2022/08/27 02:53:00;;;;;;;;;;;20.00;99.90;;;;;;5196860;28;19923;-62
2022/08/27 02:55:34;;;;;;;;;;;19.90;99.90;;;;;;5206089;28;19904;-62
2022/08/27 02:58:08;;;;;;;;;;;19.90;99.90;;;;;;5206878;28;19908;-62
2022/08/27 03:00:42;;;;;;;;;;;19.80;99.90;;;;;;5195229;28;19909;-62
2022/08/27 03:03:13;;;;;;;;;;;19.80;99.90;;;;;;5204221;28;19901;-62
2022/08/27 03:05:47;;;;;;;;;;;19.80;99.90;;;;;;5212168;28;20259;-62
2022/08/27 03:08:19;;;;;;;;;;;19.80;99.90;;;;;;5190184;28;19976;-62
2022/08/27 03:10:54;;;;;;;;;;;19.80;99.90;;;;;;5195718;28;19968;-62
2022/08/27 03:13:25;;;;;;;;;;;19.90;99.90;;;;;;5194016;28;19905;-62
2022/08/27 03:15:59;;;;;;;;;;;19.90;99.90;;;;;;5195298;28;19940;-62
2022/08/27 03:18:35;;;;;;;;;;;19.80;99.90;;;;;;5195900;28;19907;-62
2022/08/27 03:21:07;;;;;;;;;;;19.80;99.90;;;;;;5195866;28;19905;-62
2022/08/27 03:23:41;;;;;;;;;;;19.70;99.90;;;;;;5193559;28;20143;-62
2022/08/27 03:26:18;;;;;;;;;;;19.70;99.90;;;;;;5195879;28;19911;-62
2022/08/27 03:28:51;;;;;;;;;;;19.60;99.90;;;;;;5193546;28;20244;-62
2022/08/27 03:31:26;;;;;;;;;;;19.60;99.90;;;;;;5170476;28;20082;-63
2022/08/27 03:34:01;;;;;;;;;;;19.60;99.90;;;;;;5170969;28;20000;-63
2022/08/27 03:36:35;;;;;;;;;;;19.60;99.90;;;;;;5215916;28;20213;-62
2022/08/27 03:39:06;;;;;;;;;;;19.50;99.90;;;;;;5215959;28;19901;-61
2022/08/27 03:41:39;;;;;;;;;;;19.50;99.90;;;;;;5215840;28;20221;-61
2022/08/27 03:44:13;;;;;;;;;;;19.40;99.90;;;;;;5196273;28;19909;-61
2022/08/27 03:46:44;;;;;;;;;;;19.40;99.90;;;;;;5195290;28;20133;-62
2022/08/27 03:49:16;;;;;;;;;;;19.30;99.90;;;;;;5193282;28;19900;-62
2022/08/27 03:51:48;;;;;;;;;;;19.30;99.90;;;;;;5195740;28;19905;-61
2022/08/27 03:54:23;;;;;;;;;;;19.30;99.90;;;;;;5193460;28;19904;-62
2022/08/27 03:56:57;;;;;;;;;;;19.20;99.90;;;;;;5159862;28;19901;-62
2022/08/27 03:59:30;;;;;;;;;;;19.10;99.90;;;;;;5210716;28;19923;-62
2022/08/27 04:02:03;;;;;;;;;;;19.10;99.90;;;;;;5204077;28;19905;-62
2022/08/27 04:04:39;;;;;;;;;;;19.10;99.90;;;;;;5201758;28;20126;-62
2022/08/27 04:07:10;;;;;;;;;;;19.10;99.90;;;;;;5211364;28;19901;-62
2022/08/27 04:09:41;;;;;;;;;;;19.00;99.90;;;;;;5215851;28;19900;-62
2022/08/27 04:12:18;;;;;;;;;;;19.00;99.90;;;;;;5196226;28;19907;-63
2022/08/27 04:14:51;;;;;;;;;;;19.00;99.90;;;;;;5194505;28;19909;-63
2022/08/27 04:17:24;;;;;;;;;;;18.90;99.90;;;;;;5197543;28;19901;-62
2022/08/27 04:20:01;;;;;;;;;;;19.00;99.90;;;;;;5193185;28;20011;-62
2022/08/27 04:22:32;;;;;;;;;;;19.00;99.90;;;;;;5177272;28;19915;-62
2022/08/27 04:25:04;;;;;;;;;;;18.90;99.90;;;;;;5193006;28;19912;-61
2022/08/27 04:27:42;;;;;;;;;;;18.90;99.90;;;;;;5182169;28;19901;-62
2022/08/27 04:30:14;;;;;;;;;;;18.90;99.90;;;;;;5194877;28;19907;-61
2022/08/27 04:32:45;;;;;;;;;;;19.00;99.90;;;;;;5196439;28;19909;-61
2022/08/27 04:35:22;;;;;;;;;;;19.00;99.90;;;;;;5208238;28;19905;-62
2022/08/27 04:37:56;;;;;;;;;;;19.00;99.90;;;;;;5214616;28;19908;-63
2022/08/27 04:41:18;;;;;;;;;;;19.00;99.90;;;;;;5208496;28;20012;-62
2022/08/27 04:43:20;;;;;;;;;;;19.00;99.90;;;;;;5194324;28;19905;-62
2022/08/27 04:45:54;;;;;;;;;;;19.00;99.90;;;;;;5188158;28;19911;-61
2022/08/27 04:48:25;;;;;;;;;;;18.90;99.90;;;;;;5176354;28;19905;-61
2022/08/27 04:50:56;;;;;;;;;;;19.00;99.90;;;;;;5195294;28;19908;-62
2022/08/27 04:53:27;;;;;;;;;;;19.00;99.90;;;;;;5183773;28;20114;-62
2022/08/27 04:55:59;;;;;;;;;;;19.10;99.90;;;;;;5193346;28;20200;-61
2022/08/27 04:58:32;;;;;;;;;;;19.20;99.90;;;;;;5194267;28;20390;-62
2022/08/27 05:01:03;;;;;;;;;;;19.30;99.90;;;;;;5194443;28;19905;-62
2022/08/27 05:03:37;;;;;;;;;;;19.40;99.90;;;;;;5196845;28;19913;-62
2022/08/27 05:06:08;;;;;;;;;;;19.60;99.90;;;;;;5213144;28;20117;-62
2022/08/27 05:08:41;;;;;;;;;;;19.70;99.90;;;;;;5218912;28;19900;-62
2022/08/27 05:11:16;;;;;;;;;;;19.90;99.90;;;;;;5224161;28;19901;-62
2022/08/27 05:13:55;;;;;;;;;;;20.00;99.90;;;;;;5197783;28;20110;-62
2022/08/27 05:16:26;;;;;;;;;;;20.10;99.90;;;;;;5193363;28;19909;-62
2022/08/27 05:18:57;;;;;;;;;;;20.30;99.90;;;;;;5194721;28;19901;-62
2022/08/27 05:21:30;;;;;;;;;;;20.40;99.90;;;;;;5194382;28;19905;-62
2022/08/27 05:24:03;;;;;;;;;;;20.70;99.90;;;;;;5198545;28;20269;-61
2022/08/27 05:26:34;;;;;;;;;;;20.80;99.90;;;;;;5194584;28;20182;-61
2022/08/27 05:29:08;;;;;;;;;;;21.00;99.90;;;;;;5193303;28;19901;-62
2022/08/27 05:31:40;;;;;;;;;;;21.30;99.90;;;;;;5194542;28;19948;-62
2022/08/27 05:34:11;;;;;;;;;;;21.50;99.90;;;;;;5195224;28;19913;-62
2022/08/27 05:36:42;;;;;;;;;;;21.70;99.90;;;;;;5196474;28;19904;-65
2022/08/27 05:39:13;;;;;;;;;;;22.10;99.90;;;;;;5214885;28;20178;-62
2022/08/27 05:41:44;;;;;;;;;;;22.30;99.90;;;;;;5200515;28;19904;-63
2022/08/27 05:44:16;;;;;;;;;;;22.50;99.90;;;;;;5196958;28;19976;-62
2022/08/27 05:46:47;;;;;;;;;;;22.60;99.90;;;;;;5177526;28;19902;-62
2022/08/27 05:49:19;;;;;;;;;;;22.60;99.90;;;;;;5177549;28;20245;-62
2022/08/27 05:51:50;;;;;;;;;;;22.60;99.90;;;;;;5204847;28;20135;-62
2022/08/27 05:54:22;;;;;;;;;;;22.70;99.90;;;;;;5211254;28;19915;-63
2022/08/27 05:56:53;;;;;;;;;;;22.80;99.90;;;;;;5179445;28;19901;-62
2022/08/27 06:02:17;;;;;;;;;;;23.00;99.90;;;;;;5196924;28;20128;-63
2022/08/27 06:04:48;;;;;;;;;;;23.20;99.90;;;;;;5198691;28;19912;-64
2022/08/27 06:07:22;;;;;;;;;;;23.40;99.90;;;;;;5229025;28;20165;-63
2022/08/27 06:09:53;;;;;;;;;;;23.60;99.90;;;;;;5218041;28;20198;-62
2022/08/27 06:12:25;;;;;;;;;;;23.80;99.90;;;;;;5196519;28;19974;-62
2022/08/27 06:14:56;;;;;;;;;;;23.90;99.90;;;;;;5179055;28;19919;-63
2022/08/27 06:17:32;;;;;;;;;;;24.10;99.90;;;;;;5195404;28;19928;-62
2022/08/27 06:20:06;;;;;;;;;;;24.10;99.90;;;;;;5178093;28;19908;-63
2022/08/27 06:22:37;;;;;;;;;;;24.40;99.90;;;;;;5176355;28;19905;-62
2022/08/27 06:25:08;;;;;;;;;;;24.50;99.90;;;;;;5199016;28;19936;-62
2022/08/27 06:27:39;;;;;;;;;;;24.60;99.90;;;;;;5195748;28;19907;-62
2022/08/27 06:30:15;;;;;;;;;;;24.80;99.90;;;;;;5196066;28;19964;-62
2022/08/27 06:32:46;;;;;;;;;;;24.90;99.90;;;;;;5195474;28;19901;-63
2022/08/27 06:35:20;;;;;;;;;;;25.10;99.90;;;;;;5201868;28;19904;-62
2022/08/27 06:37:55;;;;;;;;;;;25.10;99.90;;;;;;5196525;28;19907;-62
2022/08/27 06:40:29;;;;;;;;;;;25.00;99.90;;;;;;5198404;28;20071;-62
2022/08/27 06:43:02;;;;;;;;;;;25.10;99.90;;;;;;5190753;28;19909;-62
2022/08/27 06:45:36;;;;;;;;;;;25.40;99.90;;;;;;5178508;28;20205;-63
2022/08/27 06:48:10;;;;;;;;;;;25.50;99.90;;;;;;5196558;28;19907;-62
2022/08/27 06:50:41;;;;;;;;;;;25.80;99.90;;;;;;5195496;28;19908;-62
2022/08/27 06:53:17;;;;;;;;;;;26.50;99.90;;;;;;5195856;28;20229;-63
2022/08/27 06:55:50;;;;;;;;;;;26.80;99.90;;;;;;5196015;28;19911;-64
2022/08/27 06:58:21;;;;;;;;;;;27.40;99.90;;;;;;5197191;28;19911;-63
2022/08/27 07:00:55;;;;;;;;;;;27.50;99.90;;;;;;5195291;28;19939;-63
2022/08/27 07:03:32;;;;;;;;;;;28.10;99.90;;;;;;5207272;28;19943;-63
2022/08/27 07:06:04;;;;;;;;;;;28.50;99.90;;;;;;5218147;28;20159;-64
2022/08/27 07:08:35;;;;;;;;;;;27.70;99.90;;;;;;5194174;28;20107;-63
2022/08/27 07:11:12;;;;;;;;;;;27.40;99.90;;;;;;5194621;28;19901;-64
2022/08/27 07:13:51;;;;;;;;;;;27.50;99.90;;;;;;5190790;28;20142;-65
2022/08/27 07:16:25;;;;;;;;;;;27.30;99.90;;;;;;5178138;28;19910;-62
2022/08/27 07:18:57;;;;;;;;;;;27.40;99.90;;;;;;5180563;28;19913;-62
2022/08/27 07:21:31;;;;;;;;;;;27.80;99.90;;;;;;5196442;28;19905;-65
2022/08/27 07:24:08;;;;;;;;;;;27.70;99.90;;;;;;5200929;28;20214;-63
2022/08/27 07:26:40;;;;;;;;;;;27.50;99.90;;;;;;5158986;28;20234;-63
2022/08/27 07:29:13;;;;;;;;;;;27.10;99.90;;;;;;5158432;28;19907;-62
2022/08/27 07:31:49;;;;;;;;;;;26.40;99.90;;;;;;5176419;28;20443;-62
2022/08/27 07:34:20;;;;;;;;;;;26.00;99.90;;;;;;5170362;28;20305;-63
2022/08/27 07:36:54;;;;;;;;;;;25.70;99.90;;;;;;5196641;28;20123;-62
2022/08/27 07:39:27;;;;;;;;;;;25.50;99.90;;;;;;5178582;28;20064;-63
2022/08/27 07:44:48;;;;;;;;;;;25.50;99.90;;;;;;5190956;28;19909;-63
2022/08/27 07:47:19;;;;;;;;;;;25.70;99.90;;;;;;5195521;28;19925;-63
2022/08/27 07:49:56;;;;;;;;;;;25.90;99.90;;;;;;5211051;28;20091;-63
2022/08/27 07:52:27;;;;;;;;;;;26.10;99.90;;;;;;5211717;28;20185;-63
2022/08/27 07:55:01;;;;;;;;;;;26.00;99.90;;;;;;5198977;28;19920;-63
2022/08/27 07:57:32;;;;;;;;;;;25.80;99.90;;;;;;5156808;28;19936;-62
2022/08/27 08:00:05;;;;;;;;;;;25.90;99.90;;;;;;5175547;28;20199;-63
2022/08/27 08:02:37;;;;;;;;;;;26.10;99.90;;;;;;5185548;28;19911;-64
2022/08/27 08:05:08;;;;;;;;;;;26.30;99.90;;;;;;5209413;28;20254;-63
2022/08/27 08:07:43;;;;;;;;;;;26.20;99.90;;;;;;5208417;28;19901;-63
2022/08/27 08:10:14;;;;;;;;;;;26.30;99.90;;;;;;5198434;28;20350;-64
2022/08/27 08:12:45;;;;;;;;;;;26.20;99.90;;;;;;5210696;28;19941;-63
2022/08/27 08:15:20;;;;;;;;;;;26.20;99.90;;;;;;5187923;28;19919;-63
2022/08/27 08:17:51;;;;;;;;;;;26.50;99.90;;;;;;5211304;28;19928;-63
2022/08/27 08:20:24;;;;;;;;;;;26.50;99.90;;;;;;5196393;28;20202;-63
2022/08/27 08:22:55;;;;;;;;;;;26.20;99.90;;;;;;5212490;28;20074;-62
2022/08/27 08:25:26;;;;;;;;;;;26.00;99.90;;;;;;5196866;28;19931;-63
2022/08/27 08:27:58;;;;;;;;;;;26.10;99.90;;;;;;5197083;28;19901;-63
2022/08/27 08:30:29;;;;;;;;;;;26.00;99.90;;;;;;5194391;28;19901;-63
2022/08/27 08:33:03;;;;;;;;;;;26.20;99.90;;;;;;5211523;28;19907;-62
2022/08/27 08:35:36;;;;;;;;;;;26.40;99.90;;;;;;5200184;28;19905;-62
2022/08/27 08:38:08;;;;;;;;;;;26.60;99.90;;;;;;5194687;28;19932;-62
2022/08/27 08:40:41;;;;;;;;;;;26.70;99.90;;;;;;5195672;28;20292;-63
2022/08/27 08:43:27;;;;;;;;;;;26.60;99.90;;;;;;5195617;28;19911;-64
2022/08/27 08:46:02;;;;;;;;;;;26.40;99.90;;;;;;5193488;28;19912;-63
2022/08/27 08:48:36;;;;;;;;;;;26.50;99.90;;;;;;5202711;28;19928;-62
2022/08/27 08:51:16;;;;;;;;;;;27.10;99.90;;;;;;5193647;28;19931;-62
2022/08/27 08:53:52;;;;;;;;;;;27.10;99.90;;;;;;5195176;28;19923;-62
2022/08/27 08:56:27;;;;;;;;;;;27.40;99.90;;;;;;5180410;28;19901;-62
2022/08/27 08:59:04;;;;;;;;;;;27.30;99.90;;;;;;5194459;28;19908;-63
2022/08/27 09:01:35;;;;;;;;;;;26.80;99.90;;;;;;5201083;28;19909;-63
2022/08/27 09:04:09;;;;;;;;;;;26.50;99.90;;;;;;5212359;28;19983;-64
2022/08/27 09:06:43;;;;;;;;;;;26.50;99.90;;;;;;5220843;28;19909;-63
2022/08/27 09:09:23;;;;;;;;;;;26.80;99.90;;;;;;5216165;28;19901;-63
2022/08/27 09:12:00;;;;;;;;;;;26.90;99.90;;;;;;5211982;28;19911;-63
2022/08/27 09:14:37;;;;;;;;;;;27.00;99.90;;;;;;5195146;28;19905;-63
2022/08/27 09:17:08;;;;;;;;;;;27.50;99.90;;;;;;5214461;28;20078;-63
2022/08/27 09:19:41;;;;;;;;;;;27.80;99.90;;;;;;5181997;28;19901;-62
2022/08/27 09:22:18;;;;;;;;;;;28.30;99.90;;;;;;5181885;28;20027;-62
2022/08/27 09:24:56;;;;;;;;;;;27.80;99.90;;;;;;5200147;28;19909;-63
2022/08/27 09:27:30;;;;;;;;;;;27.90;99.90;;;;;;5198845;28;19905;-63
2022/08/27 09:30:09;;;;;;;;;;;28.50;99.90;;;;;;5199423;28;20345;-63
2022/08/27 09:32:43;;;;;;;;;;;28.10;99.90;;;;;;5199566;28;19900;-63
2022/08/27 09:35:16;;;;;;;;;;;28.20;99.90;;;;;;5196844;28;20221;-63
2022/08/27 09:37:50;;;;;;;;;;;28.10;99.90;;;;;;5220034;28;20059;-64
2022/08/27 09:40:27;;;;;;;;;;;27.80;99.90;;;;;;5216392;28;19911;-62
2022/08/27 09:43:04;;;;;;;;;;;27.80;99.90;;;;;;5197581;28;20164;-62
2022/08/27 09:45:45;;;;;;;;;;;28.00;99.90;;;;;;5197472;28;20210;-63
2022/08/27 09:48:27;;;;;;;;;;;28.10;99.90;;;;;;5197791;28;19901;-62
2022/08/27 09:51:20;;;;;;;;;;;28.50;99.90;;;;;;5198257;28;20124;-63
2022/08/27 09:53:53;;;;;;;;;;;29.10;99.90;;;;;;5199257;28;19909;-63
2022/08/27 09:56:40;;;;;;;;;;;28.60;99.90;;;;;;5198454;28;19907;-63
2022/08/27 09:59:21;;;;;;;;;;;28.80;99.90;;;;;;5197481;28;19901;-64
2022/08/27 10:01:52;;;;;;;;;;;29.10;99.90;;;;;;5207097;28;20186;-64
2022/08/27 10:04:28;;;;;;;;;;;28.40;99.90;;;;;;5207277;28;20315;-63
2022/08/27 10:07:17;;;;;;;;;;;28.30;99.90;;;;;;5195681;28;19924;-63
2022/08/27 10:10:07;;;;;;;;;;;28.60;99.90;;;;;;5185358;28;19901;-63
2022/08/27 10:12:43;;;;;;;;;;;28.50;99.90;;;;;;5190976;28;19915;-63
2022/08/27 10:15:22;;;;;;;;;;;28.50;99.90;;;;;;5197576;28;19909;-62
2022/08/27 10:17:58;;;;;;;;;;;28.20;99.90;;;;;;5198169;28;20206;-63
2022/08/27 10:20:41;;;;;;;;;;;28.20;99.90;;;;;;5198779;28;19901;-63
2022/08/27 10:23:30;;;;;;;;;;;28.20;99.90;;;;;;5185249;28;19904;-63
2022/08/27 10:26:06;;;;;;;;;;;28.10;99.90;;;;;;5199782;28;19905;-63
2022/08/27 10:28:37;;;;;;;;;;;28.70;99.90;;;;;;5197398;28;19908;-63
2022/08/27 10:31:17;;;;;;;;;;;28.60;99.90;;;;;;5198544;28;19901;-63
2022/08/27 10:33:49;;;;;;;;;;;29.40;99.90;;;;;;5198664;28;20111;-62
2022/08/27 10:36:31;;;;;;;;;;;29.50;99.90;;;;;;5214243;28;20174;-63
2022/08/27 10:39:21;;;;;;;;;;;29.50;99.90;;;;;;5213913;28;20007;-62
2022/08/27 10:42:28;;;;;;;;;;;29.70;99.90;;;;;;5196206;28;19911;-62
2022/08/27 10:45:03;;;;;;;;;;;29.60;99.90;;;;;;5135331;28;20278;-63
2022/08/27 10:47:39;;;;;;;;;;;29.10;99.90;;;;;;5191401;28;20126;-63
2022/08/27 10:50:13;;;;;;;;;;;29.30;99.90;;;;;;5199417;28;19901;-63
2022/08/27 10:52:47;;;;;;;;;;;29.70;99.90;;;;;;5199682;28;19964;-64
2022/08/27 10:55:25;;;;;;;;;;;30.30;99.90;;;;;;5179801;28;19921;-64
2022/08/27 10:58:08;;;;;;;;;;;30.60;99.90;;;;;;5177652;28;19905;-63
2022/08/27 11:00:42;;;;;;;;;;;31.00;99.90;;;;;;5196868;28;19912;-62
2022/08/27 11:03:34;;;;;;;;;;;30.60;99.90;;;;;;5217551;28;19908;-64
2022/08/27 11:06:17;;;;;;;;;;;31.60;99.90;;;;;;5192197;28;19919;-63
2022/08/27 11:09:01;;;;;;;;;;;32.30;99.90;;;;;;5198620;28;20237;-63
2022/08/27 11:11:40;;;;;;;;;;;32.80;99.90;;;;;;5195577;28;19907;-63
2022/08/27 11:14:23;;;;;;;;;;;32.90;99.90;;;;;;5196987;28;19908;-65
2022/08/27 11:16:56;;;;;;;;;;;33.10;99.90;;;;;;5197110;28;19908;-64
2022/08/27 11:19:39;;;;;;;;;;;33.60;99.90;;;;;;5196159;28;19912;-63
2022/08/27 11:22:18;;;;;;;;;;;34.70;99.90;;;;;;5197645;28;19909;-66
2022/08/27 11:24:52;;;;;;;;;;;34.20;99.90;;;;;;5197830;28;19905;-64
2022/08/27 11:27:27;;;;;;;;;;;35.20;99.90;;;;;;5197137;28;20187;-63
2022/08/27 11:30:05;;;;;;;;;;;34.00;99.90;;;;;;5178474;28;19905;-63
2022/08/27 11:32:48;;;;;;;;;;;33.20;99.90;;;;;;5198202;28;19901;-62
2022/08/27 11:35:37;;;;;;;;;;;31.50;99.90;;;;;;5207834;28;19900;-63
2022/08/27 11:38:20;;;;;;;;;;;31.60;99.90;;;;;;5195485;28;19901;-63
2022/08/27 11:40:54;;;;;;;;;;;31.20;99.90;;;;;;5196077;28;19901;-63
2022/08/27 11:43:27;;;;;;;;;;;31.00;99.90;;;;;;5197501;28;20410;-64
2022/08/27 11:45:58;;;;;;;;;;;31.60;99.90;;;;;;5178697;28;19905;-64
2022/08/27 11:48:34;;;;;;;;;;;32.30;99.90;;;;;;5196595;28;20199;-63
2022/08/27 11:51:13;;;;;;;;;;;32.10;99.90;;;;;;5196732;28;19901;-62
2022/08/27 11:53:55;;;;;;;;;;;32.10;99.90;;;;;;5178975;28;20253;-63
2022/08/27 11:56:29;;;;;;;;;;;32.20;99.90;;;;;;5174249;28;19912;-62
2022/08/27 11:59:19;;;;;;;;;;;33.90;99.90;;;;;;5176197;28;19901;-63
2022/08/27 12:01:57;;;;;;;;;;;33.70;99.90;;;;;;5191308;28;19911;-64
2022/08/27 12:04:35;;;;;;;;;;;34.40;99.90;;;;;;5209281;28;19905;-62
2022/08/27 12:07:12;;;;;;;;;;;35.00;99.90;;;;;;5189928;28;19940;-63
2022/08/27 12:09:58;;;;;;;;;;;35.90;99.90;;;;;;5196332;28;20214;-64
2022/08/27 12:12:48;;;;;;;;;;;37.80;99.90;;;;;;5179428;28;19901;-63
2022/08/27 12:15:25;;;;;;;;;;;38.50;99.90;;;;;;5211289;28;19915;-65
2022/08/27 12:18:08;;;;;;;;;;;36.20;99.90;;;;;;5196908;28;19905;-64
2022/08/27 12:20:48;;;;;;;;;;;35.10;99.90;;;;;;5196774;28;19901;-63
2022/08/27 12:23:39;;;;;;;;;;;33.30;99.90;;;;;;5198583;28;19911;-62
2022/08/27 12:26:15;;;;;;;;;;;32.10;99.90;;;;;;5194769;28;20162;-63
2022/08/27 12:28:51;;;;;;;;;;;31.10;99.90;;;;;;5196761;28;19905;-63
2022/08/27 12:31:22;;;;;;;;;;;30.80;99.90;;;;;;5195386;28;20122;-64
2022/08/27 12:33:56;;;;;;;;;;;30.30;99.90;;;;;;5196564;28;19901;-63
2022/08/27 12:36:31;;;;;;;;;;;29.90;99.90;;;;;;5195732;28;19901;-62
2022/08/27 12:39:04;;;;;;;;;;;29.90;99.90;;;;;;5196178;28;19912;-63
2022/08/27 12:41:38;;;;;;;;;;;29.70;99.90;;;;;;5197147;28;19905;-64
2022/08/27 12:44:11;;;;;;;;;;;29.60;99.90;;;;;;5198085;28;19905;-63
2022/08/27 12:46:53;;;;;;;;;;;29.30;99.90;;;;;;5189381;28;20175;-63
2022/08/27 12:49:30;;;;;;;;;;;29.20;99.90;;;;;;5198343;28;20114;-63
2022/08/27 12:52:12;;;;;;;;;;;29.40;99.90;;;;;;5182744;28;20050;-63
2022/08/27 12:55:01;;;;;;;;;;;29.40;99.90;;;;;;5200511;28;19900;-63
2022/08/27 12:57:33;;;;;;;;;;;29.50;99.90;;;;;;5200979;28;19901;-62
2022/08/27 13:00:12;;;;;;;;;;;30.00;99.90;;;;;;5199244;28;20179;-63
2022/08/27 13:02:43;;;;;;;;;;;30.00;99.90;;;;;;5214138;28;19905;-62
2022/08/27 13:05:16;;;;;;;;;;;30.00;99.90;;;;;;5201277;28;19939;-62
2022/08/27 13:07:53;;;;;;;;;;;30.10;99.90;;;;;;5193230;28;19901;-63
2022/08/27 13:10:28;;;;;;;;;;;30.40;99.90;;;;;;5200302;28;19901;-64
2022/08/27 13:13:19;;;;;;;;;;;30.90;99.90;;;;;;5200061;28;20122;-63
2022/08/27 13:15:55;;;;;;;;;;;31.70;99.90;;;;;;5188762;28;19909;-63
2022/08/27 13:18:29;;;;;;;;;;;32.70;99.90;;;;;;5198701;28;20234;-65
2022/08/27 13:21:22;;;;;;;;;;;34.30;99.90;;;;;;5199266;28;20193;-64
2022/08/27 13:23:55;;;;;;;;;;;35.10;99.90;;;;;;5199099;28;19904;-63
2022/08/27 13:26:32;;;;;;;;;;;35.00;99.90;;;;;;5198668;28;19905;-65
2022/08/27 13:29:09;;;;;;;;;;;35.90;99.90;;;;;;5198851;28;19908;-65
2022/08/27 13:31:43;;;;;;;;;;;36.30;99.90;;;;;;5199307;28;19908;-64
2022/08/27 13:34:22;;;;;;;;;;;35.20;99.90;;;;;;5199121;28;19915;-63
2022/08/27 13:36:53;;;;;;;;;;;33.80;99.90;;;;;;5198822;28;19911;-65
2022/08/27 13:39:27;;;;;;;;;;;33.50;99.90;;;;;;5199541;28;19901;-65
2022/08/27 13:41:59;;;;;;;;;;;33.80;99.90;;;;;;5217273;28;19911;-62
2022/08/27 13:44:34;;;;;;;;;;;32.80;99.90;;;;;;5200086;28;20086;-62
2022/08/27 13:47:29;;;;;;;;;;;32.10;99.90;;;;;;5200068;28;20186;-62
2022/08/27 13:50:07;;;;;;;;;;;32.10;99.90;;;;;;5199535;28;19901;-64
2022/08/27 13:54:11;;;;;;;;;;;31.90;99.90;;;;;;5182143;28;19908;-62
2022/08/27 13:55:34;;;;;;;;;;;31.90;99.90;;;;;;5197507;28;19995;-62
2022/08/27 13:58:16;;;;;;;;;;;31.10;99.90;;;;;;5197303;28;19915;-64
2022/08/27 14:00:50;;;;;;;;;;;30.90;99.90;;;;;;5197834;28;20179;-62
2022/08/27 14:03:28;;;;;;;;;;;31.00;99.90;;;;;;5199081;28;19905;-62
2022/08/27 14:06:03;;;;;;;;;;;31.10;99.90;;;;;;5203018;28;19920;-63
2022/08/27 14:08:37;;;;;;;;;;;31.10;99.90;;;;;;5199690;28;19928;-63
2022/08/27 14:11:08;;;;;;;;;;;30.80;99.90;;;;;;5198045;28;19923;-63
2022/08/27 14:13:44;;;;;;;;;;;31.20;99.90;;;;;;5193055;28;20183;-63
2022/08/27 14:16:27;;;;;;;;;;;30.90;99.90;;;;;;5178488;28;19909;-64
2022/08/27 14:19:03;;;;;;;;;;;31.30;99.90;;;;;;5176947;28;20086;-63
2022/08/27 14:21:38;;;;;;;;;;;32.10;99.90;;;;;;5178414;28;20122;-63
2022/08/27 14:24:10;;;;;;;;;;;32.90;99.90;;;;;;5178349;28;19906;-63
2022/08/27 14:26:47;;;;;;;;;;;33.10;99.90;;;;;;5226617;28;19908;-63
2022/08/27 14:29:21;;;;;;;;;;;32.10;99.90;;;;;;5188219;28;19905;-62
2022/08/27 14:31:55;;;;;;;;;;;31.80;99.90;;;;;;5203733;28;20094;-63
2022/08/27 14:34:26;;;;;;;;;;;32.10;99.90;;;;;;5200458;28;19907;-64
2022/08/27 14:36:59;;;;;;;;;;;31.90;99.90;;;;;;5202546;28;20211;-62
2022/08/27 14:39:32;;;;;;;;;;;31.70;99.90;;;;;;5159867;28;20179;-62
2022/08/27 14:42:08;;;;;;;;;;;31.30;99.90;;;;;;5177388;28;20256;-63
2022/08/27 14:44:42;;;;;;;;;;;31.10;99.90;;;;;;5198629;28;19905;-62
2022/08/27 14:47:14;;;;;;;;;;;30.80;99.90;;;;;;5197952;28;19911;-63
2022/08/27 14:49:48;;;;;;;;;;;30.20;99.90;;;;;;5198067;28;19923;-63
2022/08/27 14:52:22;;;;;;;;;;;30.00;99.90;;;;;;5199672;28;19901;-62
2022/08/27 14:54:53;;;;;;;;;;;30.30;99.90;;;;;;5198801;28;19901;-63
2022/08/27 14:57:24;;;;;;;;;;;31.20;99.90;;;;;;5178168;28;19916;-64
2022/08/27 14:59:55;;;;;;;;;;;31.60;99.90;;;;;;5177426;28;20182;-62
2022/08/27 15:02:27;;;;;;;;;;;31.70;99.90;;;;;;5203741;28;19908;-63
2022/08/27 15:05:00;;;;;;;;;;;32.20;99.90;;;;;;5199961;28;20285;-63
2022/08/27 15:07:31;;;;;;;;;;;32.40;99.90;;;;;;5187650;28;20091;-62
2022/08/27 15:10:05;;;;;;;;;;;33.80;99.90;;;;;;5195445;28;19905;-62